sensor_id;sensor_type;location;lat;lon;timestamp;temperature;humidity
15113;DHT22;7657;50.140;7.076;2022-07-29T00:01:56;20.90;99.90
15113;DHT22;7657;50.140;7.076;2022-07-29T00:04:23;21.00;99.90
15113;DHT22;7657;50.140;7.076;2022-07-29T00:06:50;21.00;99.90
15113;DHT22;7657;50.140;7.076;2022-07-29T00:09:17;20.90;99.90
15113;DHT22;7657;50.140;7.076;2022-07-29T00:11:44;20.90;99.90
15113;DHT22;7657;50.140;7.076;2022-07-29T00:14:11;20.90;99.90
15113;DHT22;7657;50.140;7.076;2022-07-29T00:16:39;20.80;99.90
15113;DHT22;7657;50.140;7.076;2022-07-29T00:19:06;20.80;99.90
15113;DHT22;7657;50.140;7.076;2022-07-29T00:21:33;20.80;99.90
15113;DHT22;7657;50.140;7.076;2022-07-29T00:24:00;20.80;99.90
15113;DHT22;7657;50.140;7.076;2022-07-29T00:26:27;20.80;99.90
15113;DHT22;7657;50.140;7.076;2022-07-29T00:28:57;20.70;99.90
15113;DHT22;7657;50.140;7.076;2022-07-29T00:31:24;20.80;99.90
15113;DHT22;7657;50.140;7.076;2022-07-29T00:33:53;20.80;99.90
15113;DHT22;7657;50.140;7.076;2022-07-29T00:36:20;20.80;99.90
15113;DHT22;7657;50.140;7.076;2022-07-29T00:38:46;20.70;99.90
15113;DHT22;7657;50.140;7.076;2022-07-29T00:41:13;20.70;99.90
15113;DHT22;7657;50.140;7.076;2022-07-29T00:43:40;20.70;99.90
15113;DHT22;7657;50.140;7.076;2022-07-29T00:46:07;20.70;99.90
15113;DHT22;7657;50.140;7.076;2022-07-29T00:48:34;20.70;99.90
15113;DHT22;7657;50.140;7.076;2022-07-29T00:51:04;20.60;99.90
15113;DHT22;7657;50.140;7.076;2022-07-29T00:53:34;20.70;99.90
15113;DHT22;7657;50.140;7.076;2022-07-29T00:56:02;20.60;99.90
15113;DHT22;7657;50.140;7.076;2022-07-29T00:58:29;20.60;99.90
15113;DHT22;7657;50.140;7.076;2022-07-29T01:00:57;20.60;99.90
15113;DHT22;7657;50.140;7.076;2022-07-29T01:03:24;20.60;99.90
15113;DHT22;7657;50.140;7.076;2022-07-29T01:05:52;20.60;99.90
15113;DHT22;7657;50.140;7.076;2022-07-29T01:08:23;20.60;99.90
15113;DHT22;7657;50.140;7.076;2022-07-29T01:10:51;20.50;99.90
15113;DHT22;7657;50.140;7.076;2022-07-29T01:13:18;20.50;99.90
15113;DHT22;7657;50.140;7.076;2022-07-29T01:15:49;20.40;99.90
15113;DHT22;7657;50.140;7.076;2022-07-29T01:18:22;20.30;99.90
15113;DHT22;7657;50.140;7.076;2022-07-29T01:21:04;20.30;99.90
15113;DHT22;7657;50.140;7.076;2022-07-29T01:24:01;20.20;99.90
15113;DHT22;7657;50.140;7.076;2022-07-29T01:26:47;20.20;99.90
15113;DHT22;7657;50.140;7.076;2022-07-29T01:29:24;20.20;99.90
15113;DHT22;7657;50.140;7.076;2022-07-29T01:31:56;20.10;99.90
15113;DHT22;7657;50.140;7.076;2022-07-29T01:34:29;20.00;99.90
15113;DHT22;7657;50.140;7.076;2022-07-29T01:37:03;20.00;99.90
15113;DHT22;7657;50.140;7.076;2022-07-29T01:39:33;20.10;99.90
15113;DHT22;7657;50.140;7.076;2022-07-29T01:42:06;20.00;99.90
15113;DHT22;7657;50.140;7.076;2022-07-29T01:44:44;20.00;99.90
15113;DHT22;7657;50.140;7.076;2022-07-29T01:47:15;20.10;99.90
15113;DHT22;7657;50.140;7.076;2022-07-29T01:49:48;20.10;99.90
15113;DHT22;7657;50.140;7.076;2022-07-29T01:52:21;20.10;99.90
15113;DHT22;7657;50.140;7.076;2022-07-29T01:54:55;20.00;99.90
15113;DHT22;7657;50.140;7.076;2022-07-29T01:57:27;20.00;99.90
15113;DHT22;7657;50.140;7.076;2022-07-29T01:59:57;20.00;99.90
15113;DHT22;7657;50.140;7.076;2022-07-29T02:02:26;20.00;99.90
15113;DHT22;7657;50.140;7.076;2022-07-29T02:04:55;20.00;99.90
15113;DHT22;7657;50.140;7.076;2022-07-29T02:07:24;20.00;99.90
15113;DHT22;7657;50.140;7.076;2022-07-29T02:09:55;20.00;99.90
15113;DHT22;7657;50.140;7.076;2022-07-29T02:12:24;20.00;99.90
15113;DHT22;7657;50.140;7.076;2022-07-29T02:14:53;20.00;99.90
15113;DHT22;7657;50.140;7.076;2022-07-29T02:17:26;20.00;99.90
15113;DHT22;7657;50.140;7.076;2022-07-29T02:19:57;20.00;99.90
15113;DHT22;7657;50.140;7.076;2022-07-29T02:22:25;19.90;99.90
15113;DHT22;7657;50.140;7.076;2022-07-29T02:24:53;19.80;99.90
15113;DHT22;7657;50.140;7.076;2022-07-29T02:27:22;19.80;99.90
15113;DHT22;7657;50.140;7.076;2022-07-29T02:29:51;19.70;99.90
15113;DHT22;7657;50.140;7.076;2022-07-29T02:32:22;19.80;99.90
15113;DHT22;7657;50.140;7.076;2022-07-29T02:34:53;19.80;99.90
15113;DHT22;7657;50.140;7.076;2022-07-29T02:37:21;19.80;99.90
15113;DHT22;7657;50.140;7.076;2022-07-29T02:39:49;19.80;99.90
15113;DHT22;7657;50.140;7.076;2022-07-29T02:42:18;19.90;99.90
15113;DHT22;7657;50.140;7.076;2022-07-29T02:44:45;19.90;99.90
15113;DHT22;7657;50.140;7.076;2022-07-29T02:47:17;19.90;99.90
15113;DHT22;7657;50.140;7.076;2022-07-29T02:49:52;19.80;99.90
15113;DHT22;7657;50.140;7.076;2022-07-29T02:52:24;19.80;99.90
15113;DHT22;7657;50.140;7.076;2022-07-29T02:54:55;19.70;99.90
15113;DHT22;7657;50.140;7.076;2022-07-29T02:57:30;19.70;99.90
15113;DHT22;7657;50.140;7.076;2022-07-29T03:00:04;19.70;99.90
15113;DHT22;7657;50.140;7.076;2022-07-29T03:02:35;19.70;99.90
15113;DHT22;7657;50.140;7.076;2022-07-29T03:05:07;19.70;99.90
15113;DHT22;7657;50.140;7.076;2022-07-29T03:07:35;19.70;99.90
15113;DHT22;7657;50.140;7.076;2022-07-29T03:10:04;19.70;99.90
15113;DHT22;7657;50.140;7.076;2022-07-29T03:12:33;19.70;99.90
15113;DHT22;7657;50.140;7.076;2022-07-29T03:15:01;19.70;99.90
15113;DHT22;7657;50.140;7.076;2022-07-29T03:17:28;19.70;99.90
15113;DHT22;7657;50.140;7.076;2022-07-29T03:19:57;19.60;99.90
15113;DHT22;7657;50.140;7.076;2022-07-29T03:22:26;19.70;99.90
15113;DHT22;7657;50.140;7.076;2022-07-29T03:24:53;19.70;99.90
15113;DHT22;7657;50.140;7.076;2022-07-29T03:27:20;19.70;99.90
15113;DHT22;7657;50.140;7.076;2022-07-29T03:29:47;19.70;99.90
15113;DHT22;7657;50.140;7.076;2022-07-29T03:32:14;19.60;99.90
15113;DHT22;7657;50.140;7.076;2022-07-29T03:34:41;19.60;99.90
15113;DHT22;7657;50.140;7.076;2022-07-29T03:37:08;19.60;99.90
15113;DHT22;7657;50.140;7.076;2022-07-29T03:39:40;19.60;99.90
15113;DHT22;7657;50.140;7.076;2022-07-29T03:42:10;19.60;99.90
15113;DHT22;7657;50.140;7.076;2022-07-29T03:44:39;19.60;99.90
15113;DHT22;7657;50.140;7.076;2022-07-29T03:47:08;19.50;99.90
15113;DHT22;7657;50.140;7.076;2022-07-29T03:49:36;19.50;99.90
15113;DHT22;7657;50.140;7.076;2022-07-29T03:52:04;19.50;99.90
15113;DHT22;7657;50.140;7.076;2022-07-29T03:54:32;19.50;99.90
15113;DHT22;7657;50.140;7.076;2022-07-29T03:57:02;19.50;99.90
15113;DHT22;7657;50.140;7.076;2022-07-29T03:59:30;19.50;99.90
15113;DHT22;7657;50.140;7.076;2022-07-29T04:02:00;19.60;99.90
15113;DHT22;7657;50.140;7.076;2022-07-29T04:04:28;19.60;99.90
15113;DHT22;7657;50.140;7.076;2022-07-29T04:06:55;19.60;99.90
15113;DHT22;7657;50.140;7.076;2022-07-29T04:09:22;19.60;99.90
15113;DHT22;7657;50.140;7.076;2022-07-29T04:11:49;19.60;99.90
15113;DHT22;7657;50.140;7.076;2022-07-29T04:14:18;19.60;99.90
15113;DHT22;7657;50.140;7.076;2022-07-29T04:16:46;19.60;99.90
15113;DHT22;7657;50.140;7.076;2022-07-29T04:19:13;19.70;99.90
15113;DHT22;7657;50.140;7.076;2022-07-29T04:21:41;19.70;99.90
15113;DHT22;7657;50.140;7.076;2022-07-29T04:24:10;19.70;99.90
15113;DHT22;7657;50.140;7.076;2022-07-29T04:26:37;19.80;99.90
15113;DHT22;7657;50.140;7.076;2022-07-29T04:29:04;19.80;99.90
15113;DHT22;7657;50.140;7.076;2022-07-29T04:31:32;19.80;99.90
15113;DHT22;7657;50.140;7.076;2022-07-29T04:33:59;19.80;99.90
15113;DHT22;7657;50.140;7.076;2022-07-29T04:36:26;19.80;99.90
15113;DHT22;7657;50.140;7.076;2022-07-29T04:38:53;19.80;99.90
15113;DHT22;7657;50.140;7.076;2022-07-29T04:41:20;19.90;99.90
15113;DHT22;7657;50.140;7.076;2022-07-29T04:43:47;19.90;99.90
15113;DHT22;7657;50.140;7.076;2022-07-29T04:46:14;19.90;99.90
15113;DHT22;7657;50.140;7.076;2022-07-29T04:48:45;20.00;99.90
15113;DHT22;7657;50.140;7.076;2022-07-29T04:51:12;20.00;99.90
15113;DHT22;7657;50.140;7.076;2022-07-29T04:53:39;20.00;99.90
15113;DHT22;7657;50.140;7.076;2022-07-29T04:56:06;20.00;99.90
15113;DHT22;7657;50.140;7.076;2022-07-29T04:58:34;20.00;99.90
15113;DHT22;7657;50.140;7.076;2022-07-29T05:01:01;20.00;99.90
15113;DHT22;7657;50.140;7.076;2022-07-29T05:03:28;20.00;99.90
15113;DHT22;7657;50.140;7.076;2022-07-29T05:05:57;20.00;99.90
15113;DHT22;7657;50.140;7.076;2022-07-29T05:08:23;20.00;99.90
15113;DHT22;7657;50.140;7.076;2022-07-29T05:10:50;20.00;99.90
15113;DHT22;7657;50.140;7.076;2022-07-29T05:13:17;20.00;99.90
15113;DHT22;7657;50.140;7.076;2022-07-29T05:15:44;20.00;99.90
15113;DHT22;7657;50.140;7.076;2022-07-29T05:18:11;20.00;99.90
15113;DHT22;7657;50.140;7.076;2022-07-29T05:20:38;19.90;99.90
15113;DHT22;7657;50.140;7.076;2022-07-29T05:23:07;20.00;99.90
15113;DHT22;7657;50.140;7.076;2022-07-29T05:25:34;20.00;99.90
15113;DHT22;7657;50.140;7.076;2022-07-29T05:28:01;20.00;99.90
15113;DHT22;7657;50.140;7.076;2022-07-29T05:30:28;20.00;99.90
15113;DHT22;7657;50.140;7.076;2022-07-29T05:32:55;20.00;99.90
15113;DHT22;7657;50.140;7.076;2022-07-29T05:35:22;20.00;99.90
15113;DHT22;7657;50.140;7.076;2022-07-29T05:37:49;20.10;99.90
15113;DHT22;7657;50.140;7.076;2022-07-29T05:40:17;20.10;99.90
15113;DHT22;7657;50.140;7.076;2022-07-29T05:42:44;20.10;99.90
15113;DHT22;7657;50.140;7.076;2022-07-29T05:45:11;20.10;99.90
15113;DHT22;7657;50.140;7.076;2022-07-29T05:47:38;20.20;99.90
15113;DHT22;7657;50.140;7.076;2022-07-29T05:50:06;20.20;99.90
15113;DHT22;7657;50.140;7.076;2022-07-29T05:52:33;20.30;99.90
15113;DHT22;7657;50.140;7.076;2022-07-29T05:55:00;20.30;99.90
15113;DHT22;7657;50.140;7.076;2022-07-29T05:57:31;20.30;99.90
15113;DHT22;7657;50.140;7.076;2022-07-29T05:59:58;20.30;99.90
15113;DHT22;7657;50.140;7.076;2022-07-29T06:02:25;20.30;99.90
15113;DHT22;7657;50.140;7.076;2022-07-29T06:04:52;20.30;99.90
15113;DHT22;7657;50.140;7.076;2022-07-29T06:07:19;20.30;99.90
15113;DHT22;7657;50.140;7.076;2022-07-29T06:09:46;20.20;99.90
15113;DHT22;7657;50.140;7.076;2022-07-29T06:12:13;20.10;99.90
15113;DHT22;7657;50.140;7.076;2022-07-29T06:14:41;20.00;99.90
15113;DHT22;7657;50.140;7.076;2022-07-29T06:17:08;20.00;99.90
15113;DHT22;7657;50.140;7.076;2022-07-29T06:19:37;20.10;99.90
15113;DHT22;7657;50.140;7.076;2022-07-29T06:22:04;20.10;99.90
15113;DHT22;7657;50.140;7.076;2022-07-29T06:24:31;20.10;99.90
15113;DHT22;7657;50.140;7.076;2022-07-29T06:26:58;20.10;99.90
15113;DHT22;7657;50.140;7.076;2022-07-29T06:29:25;20.10;99.90
15113;DHT22;7657;50.140;7.076;2022-07-29T06:31:53;20.10;99.90
15113;DHT22;7657;50.140;7.076;2022-07-29T06:34:20;20.10;99.90
15113;DHT22;7657;50.140;7.076;2022-07-29T06:36:47;20.10;99.90
15113;DHT22;7657;50.140;7.076;2022-07-29T06:39:15;20.10;99.90
15113;DHT22;7657;50.140;7.076;2022-07-29T06:41:42;20.10;99.90
15113;DHT22;7657;50.140;7.076;2022-07-29T06:44:12;20.20;99.90
15113;DHT22;7657;50.140;7.076;2022-07-29T06:46:39;20.10;99.90
15113;DHT22;7657;50.140;7.076;2022-07-29T06:49:08;20.20;99.90
15113;DHT22;7657;50.140;7.076;2022-07-29T06:51:35;20.20;99.90
15113;DHT22;7657;50.140;7.076;2022-07-29T06:54:03;20.20;99.90
15113;DHT22;7657;50.140;7.076;2022-07-29T06:56:31;20.30;99.90
15113;DHT22;7657;50.140;7.076;2022-07-29T06:58:58;20.30;99.90
15113;DHT22;7657;50.140;7.076;2022-07-29T07:01:25;20.30;99.90
15113;DHT22;7657;50.140;7.076;2022-07-29T07:03:52;20.40;99.90
15113;DHT22;7657;50.140;7.076;2022-07-29T07:06:21;20.40;99.90
15113;DHT22;7657;50.140;7.076;2022-07-29T07:08:47;20.40;99.90
15113;DHT22;7657;50.140;7.076;2022-07-29T07:11:14;20.40;99.90
15113;DHT22;7657;50.140;7.076;2022-07-29T07:13:41;20.50;99.90
15113;DHT22;7657;50.140;7.076;2022-07-29T07:16:08;20.50;99.90
15113;DHT22;7657;50.140;7.076;2022-07-29T07:18:35;20.60;99.90
15113;DHT22;7657;50.140;7.076;2022-07-29T07:21:02;20.70;99.90
15113;DHT22;7657;50.140;7.076;2022-07-29T07:23:31;20.70;99.90
15113;DHT22;7657;50.140;7.076;2022-07-29T07:25:58;20.70;99.90
15113;DHT22;7657;50.140;7.076;2022-07-29T07:28:25;20.70;99.90
15113;DHT22;7657;50.140;7.076;2022-07-29T07:30:52;20.70;99.90
15113;DHT22;7657;50.140;7.076;2022-07-29T07:33:19;20.60;99.90
15113;DHT22;7657;50.140;7.076;2022-07-29T07:35:46;20.70;99.90
15113;DHT22;7657;50.140;7.076;2022-07-29T07:38:13;20.70;99.90
15113;DHT22;7657;50.140;7.076;2022-07-29T07:40:42;20.70;99.90
15113;DHT22;7657;50.140;7.076;2022-07-29T07:43:09;20.80;99.90
15113;DHT22;7657;50.140;7.076;2022-07-29T07:45:36;20.80;99.90
15113;DHT22;7657;50.140;7.076;2022-07-29T07:48:03;20.80;99.90
15113;DHT22;7657;50.140;7.076;2022-07-29T07:50:30;20.70;99.90
15113;DHT22;7657;50.140;7.076;2022-07-29T07:52:57;20.80;99.90
15113;DHT22;7657;50.140;7.076;2022-07-29T07:55:24;20.80;99.90
15113;DHT22;7657;50.140;7.076;2022-07-29T07:57:53;20.80;99.90
15113;DHT22;7657;50.140;7.076;2022-07-29T08:00:20;20.80;99.90
15113;DHT22;7657;50.140;7.076;2022-07-29T08:02:48;20.90;99.90
15113;DHT22;7657;50.140;7.076;2022-07-29T08:05:15;20.90;99.90
15113;DHT22;7657;50.140;7.076;2022-07-29T08:07:44;21.00;99.90
15113;DHT22;7657;50.140;7.076;2022-07-29T08:10:12;21.00;99.90
15113;DHT22;7657;50.140;7.076;2022-07-29T08:12:39;20.90;99.90
15113;DHT22;7657;50.140;7.076;2022-07-29T08:15:08;21.00;99.90
15113;DHT22;7657;50.140;7.076;2022-07-29T08:17:35;21.00;99.90
15113;DHT22;7657;50.140;7.076;2022-07-29T08:20:03;21.00;99.90
15113;DHT22;7657;50.140;7.076;2022-07-29T08:22:30;21.10;99.90
15113;DHT22;7657;50.140;7.076;2022-07-29T08:24:57;21.10;99.90
15113;DHT22;7657;50.140;7.076;2022-07-29T08:27:24;21.10;99.90
15113;DHT22;7657;50.140;7.076;2022-07-29T08:29:52;21.10;99.90
15113;DHT22;7657;50.140;7.076;2022-07-29T08:32:22;21.10;99.90
15113;DHT22;7657;50.140;7.076;2022-07-29T08:34:49;21.20;99.90
15113;DHT22;7657;50.140;7.076;2022-07-29T08:37:16;21.20;99.90
15113;DHT22;7657;50.140;7.076;2022-07-29T08:39:43;21.20;99.90
15113;DHT22;7657;50.140;7.076;2022-07-29T08:42:10;21.20;99.90
15113;DHT22;7657;50.140;7.076;2022-07-29T08:44:38;21.30;99.90
15113;DHT22;7657;50.140;7.076;2022-07-29T08:47:05;21.30;99.90
15113;DHT22;7657;50.140;7.076;2022-07-29T08:49:34;21.30;99.90
15113;DHT22;7657;50.140;7.076;2022-07-29T08:52:02;21.30;99.90
15113;DHT22;7657;50.140;7.076;2022-07-29T08:54:30;21.40;99.90
15113;DHT22;7657;50.140;7.076;2022-07-29T08:56:57;21.40;99.90
15113;DHT22;7657;50.140;7.076;2022-07-29T08:59:26;21.50;99.90
15113;DHT22;7657;50.140;7.076;2022-07-29T09:01:54;21.50;99.90
15113;DHT22;7657;50.140;7.076;2022-07-29T09:04:25;21.50;99.90
15113;DHT22;7657;50.140;7.076;2022-07-29T09:06:57;21.60;99.90
15113;DHT22;7657;50.140;7.076;2022-07-29T09:09:25;21.60;99.90
15113;DHT22;7657;50.140;7.076;2022-07-29T09:11:52;21.70;99.90
15113;DHT22;7657;50.140;7.076;2022-07-29T09:14:19;21.70;99.90
15113;DHT22;7657;50.140;7.076;2022-07-29T09:16:56;21.70;99.90
15113;DHT22;7657;50.140;7.076;2022-07-29T09:19:24;21.70;99.90
15113;DHT22;7657;50.140;7.076;2022-07-29T09:21:52;21.80;99.90
15113;DHT22;7657;50.140;7.076;2022-07-29T09:24:37;21.80;99.90
15113;DHT22;7657;50.140;7.076;2022-07-29T09:27:09;21.80;99.90
15113;DHT22;7657;50.140;7.076;2022-07-29T09:29:36;21.90;99.90
15113;DHT22;7657;50.140;7.076;2022-07-29T09:32:08;21.90;99.90
15113;DHT22;7657;50.140;7.076;2022-07-29T09:34:36;21.90;99.90
15113;DHT22;7657;50.140;7.076;2022-07-29T09:37:03;21.90;99.90
15113;DHT22;7657;50.140;7.076;2022-07-29T09:39:34;21.90;99.90
15113;DHT22;7657;50.140;7.076;2022-07-29T09:42:03;21.90;99.90
15113;DHT22;7657;50.140;7.076;2022-07-29T09:44:42;21.90;99.90
15113;DHT22;7657;50.140;7.076;2022-07-29T09:47:09;22.00;99.90
15113;DHT22;7657;50.140;7.076;2022-07-29T09:49:51;22.00;99.90
15113;DHT22;7657;50.140;7.076;2022-07-29T09:52:18;22.00;99.90
15113;DHT22;7657;50.140;7.076;2022-07-29T09:54:47;22.10;99.90
15113;DHT22;7657;50.140;7.076;2022-07-29T09:57:25;22.10;99.90
15113;DHT22;7657;50.140;7.076;2022-07-29T09:59:56;22.20;99.90
15113;DHT22;7657;50.140;7.076;2022-07-29T10:02:28;22.20;99.90
15113;DHT22;7657;50.140;7.076;2022-07-29T10:04:56;22.20;99.90
15113;DHT22;7657;50.140;7.076;2022-07-29T10:07:23;22.30;99.90
15113;DHT22;7657;50.140;7.076;2022-07-29T10:09:55;22.30;99.90
15113;DHT22;7657;50.140;7.076;2022-07-29T10:12:22;22.30;99.90
15113;DHT22;7657;50.140;7.076;2022-07-29T10:14:50;22.40;99.90
15113;DHT22;7657;50.140;7.076;2022-07-29T10:17:18;22.40;99.90
15113;DHT22;7657;50.140;7.076;2022-07-29T10:19:46;22.50;99.90
15113;DHT22;7657;50.140;7.076;2022-07-29T10:22:14;22.50;99.90
15113;DHT22;7657;50.140;7.076;2022-07-29T10:24:41;22.50;99.90
15113;DHT22;7657;50.140;7.076;2022-07-29T10:27:10;22.60;99.90
15113;DHT22;7657;50.140;7.076;2022-07-29T10:29:37;22.60;99.90
15113;DHT22;7657;50.140;7.076;2022-07-29T10:32:20;22.60;99.90
15113;DHT22;7657;50.140;7.076;2022-07-29T10:35:01;22.70;99.90
15113;DHT22;7657;50.140;7.076;2022-07-29T10:37:41;22.70;99.90
15113;DHT22;7657;50.140;7.076;2022-07-29T10:40:20;22.80;99.90
15113;DHT22;7657;50.140;7.076;2022-07-29T10:43:17;22.80;99.90
15113;DHT22;7657;50.140;7.076;2022-07-29T10:45:45;22.90;99.90
15113;DHT22;7657;50.140;7.076;2022-07-29T10:48:14;22.90;99.90
15113;DHT22;7657;50.140;7.076;2022-07-29T10:50:55;23.00;99.90
15113;DHT22;7657;50.140;7.076;2022-07-29T10:53:22;23.00;99.90
15113;DHT22;7657;50.140;7.076;2022-07-29T10:55:53;23.00;99.90
15113;DHT22;7657;50.140;7.076;2022-07-29T10:58:23;23.10;99.90
15113;DHT22;7657;50.140;7.076;2022-07-29T11:00:51;23.20;99.90
15113;DHT22;7657;50.140;7.076;2022-07-29T11:03:44;23.20;99.90
15113;DHT22;7657;50.140;7.076;2022-07-29T11:06:12;23.20;99.90
15113;DHT22;7657;50.140;7.076;2022-07-29T11:08:40;23.30;99.90
15113;DHT22;7657;50.140;7.076;2022-07-29T11:11:34;23.40;99.90
15113;DHT22;7657;50.140;7.076;2022-07-29T11:14:03;23.40;99.90
15113;DHT22;7657;50.140;7.076;2022-07-29T11:16:58;23.40;99.90
15113;DHT22;7657;50.140;7.076;2022-07-29T11:19:26;23.40;99.90
15113;DHT22;7657;50.140;7.076;2022-07-29T11:21:53;23.50;99.90
15113;DHT22;7657;50.140;7.076;2022-07-29T11:24:22;23.70;99.90
15113;DHT22;7657;50.140;7.076;2022-07-29T11:27:13;23.70;99.90
15113;DHT22;7657;50.140;7.076;2022-07-29T11:29:50;23.80;99.90
15113;DHT22;7657;50.140;7.076;2022-07-29T11:32:19;23.90;99.90
15113;DHT22;7657;50.140;7.076;2022-07-29T11:34:47;24.00;99.90
15113;DHT22;7657;50.140;7.076;2022-07-29T11:37:19;24.10;99.90
15113;DHT22;7657;50.140;7.076;2022-07-29T11:40:08;24.30;99.90
15113;DHT22;7657;50.140;7.076;2022-07-29T11:42:54;24.30;99.90
15113;DHT22;7657;50.140;7.076;2022-07-29T11:45:26;24.40;99.90
15113;DHT22;7657;50.140;7.076;2022-07-29T11:47:58;24.40;99.90
15113;DHT22;7657;50.140;7.076;2022-07-29T11:50:33;24.40;99.90
15113;DHT22;7657;50.140;7.076;2022-07-29T11:53:02;24.50;99.90
15113;DHT22;7657;50.140;7.076;2022-07-29T11:55:29;24.50;99.90
15113;DHT22;7657;50.140;7.076;2022-07-29T11:58:01;24.50;99.90
15113;DHT22;7657;50.140;7.076;2022-07-29T12:00:32;24.60;99.90
15113;DHT22;7657;50.140;7.076;2022-07-29T12:03:01;24.60;99.90
15113;DHT22;7657;50.140;7.076;2022-07-29T12:05:37;24.60;99.90
15113;DHT22;7657;50.140;7.076;2022-07-29T12:08:06;24.60;99.90
15113;DHT22;7657;50.140;7.076;2022-07-29T12:10:33;24.60;99.90
15113;DHT22;7657;50.140;7.076;2022-07-29T12:13:00;24.70;99.90
15113;DHT22;7657;50.140;7.076;2022-07-29T12:15:27;24.70;99.90
15113;DHT22;7657;50.140;7.076;2022-07-29T12:17:56;24.80;99.90
15113;DHT22;7657;50.140;7.076;2022-07-29T12:20:24;24.90;99.90
15113;DHT22;7657;50.140;7.076;2022-07-29T12:22:51;25.00;99.90
15113;DHT22;7657;50.140;7.076;2022-07-29T12:25:21;25.20;99.90
15113;DHT22;7657;50.140;7.076;2022-07-29T12:27:58;25.40;99.90
15113;DHT22;7657;50.140;7.076;2022-07-29T12:30:41;25.40;99.90
15113;DHT22;7657;50.140;7.076;2022-07-29T12:33:18;25.50;99.90
15113;DHT22;7657;50.140;7.076;2022-07-29T12:35:48;25.50;99.90
15113;DHT22;7657;50.140;7.076;2022-07-29T12:38:16;25.70;99.90
15113;DHT22;7657;50.140;7.076;2022-07-29T12:40:44;25.80;99.90
15113;DHT22;7657;50.140;7.076;2022-07-29T12:43:13;25.90;99.90
15113;DHT22;7657;50.140;7.076;2022-07-29T12:45:42;25.90;99.90
15113;DHT22;7657;50.140;7.076;2022-07-29T12:48:10;25.90;99.90
15113;DHT22;7657;50.140;7.076;2022-07-29T12:50:55;25.90;99.90
15113;DHT22;7657;50.140;7.076;2022-07-29T12:53:23;25.90;99.90
15113;DHT22;7657;50.140;7.076;2022-07-29T12:55:52;26.00;99.90
15113;DHT22;7657;50.140;7.076;2022-07-29T12:58:27;26.00;99.90
15113;DHT22;7657;50.140;7.076;2022-07-29T13:01:01;26.00;99.90
15113;DHT22;7657;50.140;7.076;2022-07-29T13:03:29;26.20;99.90
15113;DHT22;7657;50.140;7.076;2022-07-29T13:05:57;26.30;99.90
15113;DHT22;7657;50.140;7.076;2022-07-29T13:08:24;26.60;99.90
15113;DHT22;7657;50.140;7.076;2022-07-29T13:10:51;26.70;99.90
15113;DHT22;7657;50.140;7.076;2022-07-29T13:13:18;27.00;99.90
15113;DHT22;7657;50.140;7.076;2022-07-29T13:16:05;26.90;99.90
15113;DHT22;7657;50.140;7.076;2022-07-29T13:18:34;27.10;99.90
15113;DHT22;7657;50.140;7.076;2022-07-29T13:21:12;27.00;99.90
15113;DHT22;7657;50.140;7.076;2022-07-29T13:23:40;26.90;99.90
15113;DHT22;7657;50.140;7.076;2022-07-29T13:26:07;26.90;99.90
15113;DHT22;7657;50.140;7.076;2022-07-29T13:28:34;26.80;99.90
15113;DHT22;7657;50.140;7.076;2022-07-29T13:31:01;27.00;99.90
15113;DHT22;7657;50.140;7.076;2022-07-29T13:33:29;27.20;99.90
15113;DHT22;7657;50.140;7.076;2022-07-29T13:35:56;27.20;99.90
15113;DHT22;7657;50.140;7.076;2022-07-29T13:38:24;27.10;99.90
15113;DHT22;7657;50.140;7.076;2022-07-29T13:40:51;27.00;99.90
15113;DHT22;7657;50.140;7.076;2022-07-29T13:43:18;27.00;99.90
15113;DHT22;7657;50.140;7.076;2022-07-29T13:45:45;26.90;99.90
15113;DHT22;7657;50.140;7.076;2022-07-29T13:48:12;26.60;99.90
15113;DHT22;7657;50.140;7.076;2022-07-29T13:50:39;26.50;99.90
15113;DHT22;7657;50.140;7.076;2022-07-29T13:53:06;26.50;99.90
15113;DHT22;7657;50.140;7.076;2022-07-29T13:55:34;26.20;99.90
15113;DHT22;7657;50.140;7.076;2022-07-29T13:58:01;26.10;99.90
15113;DHT22;7657;50.140;7.076;2022-07-29T14:00:28;26.10;99.90
15113;DHT22;7657;50.140;7.076;2022-07-29T14:02:55;26.10;99.90
15113;DHT22;7657;50.140;7.076;2022-07-29T14:05:22;26.00;99.90
15113;DHT22;7657;50.140;7.076;2022-07-29T14:07:49;26.00;99.90
15113;DHT22;7657;50.140;7.076;2022-07-29T14:10:16;26.00;99.90
15113;DHT22;7657;50.140;7.076;2022-07-29T14:12:44;26.00;99.90
15113;DHT22;7657;50.140;7.076;2022-07-29T14:15:11;26.20;99.90
15113;DHT22;7657;50.140;7.076;2022-07-29T14:17:38;26.60;99.90
15113;DHT22;7657;50.140;7.076;2022-07-29T14:20:06;26.80;99.90
15113;DHT22;7657;50.140;7.076;2022-07-29T14:22:33;27.20;99.90
15113;DHT22;7657;50.140;7.076;2022-07-29T14:25:00;27.40;99.90
15113;DHT22;7657;50.140;7.076;2022-07-29T14:27:26;27.80;99.90
15113;DHT22;7657;50.140;7.076;2022-07-29T14:29:55;28.00;99.90
15113;DHT22;7657;50.140;7.076;2022-07-29T14:32:22;28.30;99.90
15113;DHT22;7657;50.140;7.076;2022-07-29T14:34:49;28.70;99.40
15113;DHT22;7657;50.140;7.076;2022-07-29T14:37:16;29.00;99.60
15113;DHT22;7657;50.140;7.076;2022-07-29T14:39:42;29.20;98.60
15113;DHT22;7657;50.140;7.076;2022-07-29T14:42:09;29.40;97.80
15113;DHT22;7657;50.140;7.076;2022-07-29T14:44:36;29.70;97.40
15113;DHT22;7657;50.140;7.076;2022-07-29T14:47:05;29.50;97.20
15113;DHT22;7657;50.140;7.076;2022-07-29T14:49:32;29.40;97.20
15113;DHT22;7657;50.140;7.076;2022-07-29T14:51:59;29.60;96.70
15113;DHT22;7657;50.140;7.076;2022-07-29T14:54:26;29.50;96.60
15113;DHT22;7657;50.140;7.076;2022-07-29T14:56:53;29.50;96.50
15113;DHT22;7657;50.140;7.076;2022-07-29T14:59:22;29.30;96.40
15113;DHT22;7657;50.140;7.076;2022-07-29T15:01:49;29.10;96.70
15113;DHT22;7657;50.140;7.076;2022-07-29T15:04:17;28.80;96.60
15113;DHT22;7657;50.140;7.076;2022-07-29T15:06:44;28.60;97.00
15113;DHT22;7657;50.140;7.076;2022-07-29T15:09:11;28.70;97.30
15113;DHT22;7657;50.140;7.076;2022-07-29T15:11:38;28.90;97.00
15113;DHT22;7657;50.140;7.076;2022-07-29T15:14:05;29.10;97.00
15113;DHT22;7657;50.140;7.076;2022-07-29T15:16:32;29.30;96.80
15113;DHT22;7657;50.140;7.076;2022-07-29T15:18:59;29.30;96.50
15113;DHT22;7657;50.140;7.076;2022-07-29T15:21:28;29.20;96.60
15113;DHT22;7657;50.140;7.076;2022-07-29T15:23:54;29.30;96.20
15113;DHT22;7657;50.140;7.076;2022-07-29T15:26:21;29.30;95.90
15113;DHT22;7657;50.140;7.076;2022-07-29T15:28:48;29.10;96.40
15113;DHT22;7657;50.140;7.076;2022-07-29T15:31:15;29.20;96.70
15113;DHT22;7657;50.140;7.076;2022-07-29T15:33:44;29.20;96.80
15113;DHT22;7657;50.140;7.076;2022-07-29T15:36:11;28.90;96.50
15113;DHT22;7657;50.140;7.076;2022-07-29T15:38:39;28.50;96.80
15113;DHT22;7657;50.140;7.076;2022-07-29T15:41:07;28.20;97.30
15113;DHT22;7657;50.140;7.076;2022-07-29T15:43:34;28.20;97.60
15113;DHT22;7657;50.140;7.076;2022-07-29T15:46:01;28.00;97.60
15113;DHT22;7657;50.140;7.076;2022-07-29T15:48:45;27.80;98.00
15113;DHT22;7657;50.140;7.076;2022-07-29T15:51:12;27.80;98.20
15113;DHT22;7657;50.140;7.076;2022-07-29T15:53:41;28.10;98.40
15113;DHT22;7657;50.140;7.076;2022-07-29T15:56:08;28.70;98.10
15113;DHT22;7657;50.140;7.076;2022-07-29T15:58:34;28.90;97.60